Dry Branch, Georgia
Current Conditions -  °F | °C
As of 2:53 PM on Wednesday 26 Nov 2014 (Local Time) from KMCN Reporting Station
Clear Clear  
Wind Chill: 59°   Ceiling: Unl
Heat Index: 59°   Visibility: 10mi
Dew Point: 24°   Wind: 12mph
Humidity: 26%   Direction: 270°W
Pressure: 30.09"   Gusts: NA
Location:  32.8°N, 83.5°W
Report Text: KMCN 261953Z 27010KT 10SM CLR 15/M04 A3009 RMK AO2 SLP187 T01501044
Loading
Personal Weather Stations






























Interactive Weather Map New forecast layout! Learn more

10-Day Weather Forecast

Advertisements
Track Severe Weather on mobile